createdAt,value
2023-01-19T00:02:32.290Z,60.99
2023-01-19T00:05:02.683Z,60.49
2023-01-19T00:07:33.556Z,60.59
2023-01-19T00:10:00.387Z,61.10
2023-01-19T00:12:28.322Z,60.28
2023-01-19T00:14:55.610Z,60.55
2023-01-19T00:17:47.537Z,60.89
2023-01-19T00:20:17.365Z,61.11
2023-01-19T00:22:44.356Z,60.89
2023-01-19T00:25:11.300Z,61.55
2023-01-19T00:27:38.356Z,61.07
2023-01-19T00:30:06.063Z,60.82
2023-01-19T00:32:36.108Z,60.99
2023-01-19T00:35:03.534Z,60.66
2023-01-19T00:37:30.416Z,60.50
2023-01-19T00:40:03.382Z,60.76
2023-01-19T00:42:40.632Z,60.40
2023-01-19T00:45:15.650Z,60.24
2023-01-19T00:47:58.827Z,60.45
2023-01-19T00:50:33.885Z,60.04
2023-01-19T00:53:35.061Z,60.04
2023-01-19T00:56:18.640Z,60.15
2023-01-19T00:58:46.767Z,59.96
2023-01-19T01:01:23.526Z,60.18
2023-01-19T01:04:19.904Z,59.75
2023-01-19T01:06:47.404Z,59.90
2023-01-19T01:09:32.391Z,59.41
2023-01-19T01:11:59.595Z,58.69
2023-01-19T01:14:33.443Z,58.34
2023-01-19T01:17:00.852Z,58.42
2023-01-19T01:19:27.840Z,58.75
2023-01-19T01:21:55.862Z,58.31
2023-01-19T01:24:25.426Z,57.94
2023-01-19T01:26:52.222Z,57.53
2023-01-19T01:29:20.270Z,57.25
2023-01-19T01:31:47.202Z,56.90
2023-01-19T01:34:14.347Z,56.84
2023-01-19T01:36:42.185Z,56.91
2023-01-19T01:39:28.412Z,56.75
2023-01-19T01:45:38.761Z,56.63
2023-01-19T01:48:35.770Z,57.14
2023-01-19T01:51:25.782Z,56.91
2023-01-19T01:54:22.120Z,57.19
2023-01-19T02:23:34.468Z,57.06
2023-01-19T02:26:18.450Z,56.31
2023-01-19T02:35:42.768Z,56.47
2023-01-19T02:38:12.108Z,56.34
2023-01-19T02:40:46.021Z,56.66
2023-01-19T02:43:24.719Z,56.77
2023-01-19T02:45:52.425Z,56.75
2023-01-19T02:48:21.496Z,56.19
2023-01-19T02:51:06.075Z,56.24
2023-01-19T02:54:09.453Z,56.16
2023-01-19T02:57:01.053Z,55.60
2023-01-19T02:59:41.527Z,56.07
2023-01-19T03:02:37.946Z,56.52
2023-01-19T03:19:36.420Z,57.43
2023-01-19T03:22:15.136Z,57.00
2023-01-19T03:24:47.955Z,57.21
2023-01-19T03:27:28.191Z,57.18
2023-01-19T03:30:10.599Z,57.26
2023-01-19T03:32:47.895Z,56.90
2023-01-19T03:35:25.524Z,56.84
2023-01-19T03:37:57.090Z,56.93
2023-01-19T03:40:29.736Z,56.57
2023-01-19T03:42:58.926Z,56.99
2023-01-19T03:45:31.503Z,57.11
2023-01-19T03:48:00.106Z,57.28
2023-01-19T03:50:33.154Z,57.88
2023-01-19T03:53:02.982Z,57.51
2023-01-19T03:55:30.301Z,57.32
2023-01-19T03:58:00.289Z,57.09
2023-01-19T04:00:27.301Z,57.46
2023-01-19T04:02:56.921Z,57.58
2023-01-19T04:05:26.060Z,57.54
2023-01-19T04:08:01.650Z,57.79
2023-01-19T04:10:28.783Z,58.20
2023-01-19T04:13:01.211Z,57.77
2023-01-19T04:15:29.514Z,57.80
2023-01-19T04:18:03.152Z,58.37
2023-01-19T04:20:30.214Z,58.42
2023-01-19T04:23:04.121Z,58.21
2023-01-19T04:25:35.931Z,57.98
2023-01-19T04:28:03.864Z,57.96
2023-01-19T04:30:30.865Z,58.26
2023-01-19T04:33:00.099Z,58.77
2023-01-19T04:35:27.643Z,59.07
2023-01-19T04:37:54.772Z,59.29
2023-01-19T04:40:21.702Z,59.56
2023-01-19T04:44:13.749Z,59.51
2023-01-19T04:46:46.423Z,59.86
2023-01-19T04:49:31.698Z,60.04
2023-01-19T04:51:59.724Z,59.72
2023-01-19T04:54:32.853Z,59.83
2023-01-19T04:57:04.534Z,59.89
2023-01-19T04:59:46.475Z,58.97
2023-01-19T05:02:22.117Z,59.13
2023-01-19T05:05:04.031Z,58.84
2023-01-19T05:07:46.448Z,58.87
2023-01-19T05:10:35.283Z,59.28
2023-01-19T05:13:04.462Z,59.92
2023-01-19T05:15:42.943Z,60.05
2023-01-19T05:18:17.314Z,60.25
2023-01-19T05:20:50.988Z,60.36
2023-01-19T05:23:18.880Z,59.82
2023-01-19T05:59:06.835Z,58.91
2023-01-19T06:29:28.038Z,55.72
2023-01-19T06:31:58.827Z,55.58
2023-01-19T06:34:29.398Z,55.86
2023-01-19T06:36:59.813Z,55.86
2023-01-19T06:39:27.567Z,54.91
2023-01-19T06:41:54.478Z,54.04
2023-01-19T06:45:06.391Z,54.12
2023-01-19T06:48:14.517Z,53.80
2023-01-19T06:56:22.217Z,53.36
2023-01-19T07:05:05.440Z,51.98
2023-01-19T07:08:10.607Z,52.59
2023-01-19T07:11:26.403Z,52.20
2023-01-19T07:13:31.629Z,51.86
2023-01-19T07:16:26.858Z,51.08
2023-01-19T07:18:55.078Z,51.25
2023-01-19T07:24:05.599Z,51.22
2023-01-19T07:29:21.714Z,52.46
2023-01-19T07:31:59.548Z,52.16
2023-01-19T07:34:29.637Z,51.30
2023-01-19T07:37:04.243Z,51.90
2023-01-19T07:39:38.287Z,52.08
2023-01-19T07:42:05.183Z,51.63
2023-01-19T07:45:21.753Z,52.34
2023-01-19T07:47:51.093Z,51.92
2023-01-19T07:50:30.355Z,51.81
2023-01-19T07:56:01.872Z,52.00
2023-01-19T07:58:39.865Z,51.36
2023-01-19T08:01:12.218Z,52.43
2023-01-19T08:03:39.493Z,51.87
2023-01-19T08:06:32.943Z,52.39
2023-01-19T08:17:02.802Z,52.82
2023-01-19T08:19:30.069Z,52.55
2023-01-19T08:22:35.127Z,53.76
2023-01-19T08:25:08.437Z,55.51
2023-01-19T08:27:35.385Z,56.12
2023-01-19T08:30:02.116Z,55.83
2023-01-19T08:32:29.184Z,56.49
2023-01-19T08:34:56.120Z,56.14
2023-01-19T08:37:27.786Z,55.03
2023-01-19T08:39:54.709Z,55.46
2023-01-19T08:42:28.191Z,55.19
2023-01-19T08:45:01.434Z,55.20
2023-01-19T08:47:33.092Z,55.23
2023-01-19T08:50:06.224Z,54.93
2023-01-19T08:52:33.188Z,55.27
2023-01-19T08:55:11.724Z,55.12
2023-01-19T09:01:11.167Z,55.94
2023-01-19T09:03:38.011Z,55.65
2023-01-19T09:08:40.774Z,56.52
2023-01-19T09:11:15.002Z,57.04
2023-01-19T09:13:45.547Z,56.36
2023-01-19T09:16:57.826Z,56.79
2023-01-19T09:25:21.990Z,56.29
2023-01-19T09:28:00.768Z,56.49
2023-01-19T09:30:28.291Z,56.48
2023-01-19T09:32:55.477Z,55.72
2023-01-19T09:35:22.369Z,55.45
2023-01-19T09:37:56.955Z,54.21
2023-01-19T09:40:23.686Z,53.71
2023-01-19T09:43:02.583Z,53.10
2023-01-19T09:46:02.700Z,53.66
2023-01-19T10:05:20.968Z,54.83
2023-01-19T10:08:22.470Z,54.20
2023-01-19T10:10:56.151Z,54.65
2023-01-19T10:22:07.280Z,54.69
2023-01-19T10:48:16.921Z,52.37
2023-01-19T10:54:05.384Z,51.11
2023-01-19T10:56:36.074Z,50.57
2023-01-19T10:59:11.955Z,50.12
2023-01-19T11:18:08.231Z,49.23
2023-01-19T11:27:17.827Z,47.22
2023-01-19T11:30:10.956Z,48.04
2023-01-19T11:32:50.131Z,47.41
2023-01-19T11:36:48.819Z,46.64
2023-01-19T11:39:23.966Z,45.45
2023-01-19T11:45:44.094Z,47.08
2023-01-19T11:48:34.404Z,46.52
2023-01-19T11:51:36.542Z,46.04
2023-01-19T11:54:29.821Z,46.34
2023-01-19T12:00:23.543Z,46.39
2023-01-19T12:02:53.354Z,46.17
2023-01-19T12:05:35.677Z,48.13
2023-01-19T12:08:24.121Z,48.06
2023-01-19T12:11:06.279Z,48.41
2023-01-19T12:13:53.943Z,48.82
2023-01-19T12:16:56.313Z,49.16
2023-01-19T12:19:29.722Z,49.64
2023-01-19T12:21:59.904Z,48.89
2023-01-19T12:25:27.266Z,49.45
2023-01-19T12:27:54.809Z,49.27
2023-01-19T12:42:08.458Z,46.42
2023-01-19T12:44:35.948Z,46.80
2023-01-19T12:47:14.710Z,47.72
2023-01-19T12:49:54.568Z,46.51
2023-01-19T12:52:34.656Z,46.56
2023-01-19T12:55:22.745Z,46.36
2023-01-19T12:58:10.888Z,46.38
2023-01-19T13:00:42.818Z,46.00
2023-01-19T13:03:32.832Z,45.34
2023-01-19T13:05:59.862Z,45.78
2023-01-19T13:08:30.634Z,45.93
2023-01-19T13:11:00.603Z,45.85
2023-01-19T13:13:38.739Z,45.94
2023-01-19T13:16:25.194Z,46.07
2023-01-19T13:19:06.356Z,46.61
2023-01-19T13:21:43.562Z,46.15
2023-01-19T13:27:04.061Z,46.71
2023-01-19T13:29:43.972Z,46.89
2023-01-19T13:32:17.825Z,47.09
2023-01-19T13:34:50.231Z,46.13
2023-01-19T13:37:39.980Z,45.97
2023-01-19T13:40:08.105Z,45.83
2023-01-19T13:42:40.877Z,46.17
2023-01-19T13:45:23.995Z,45.65
2023-01-19T13:47:54.817Z,46.14
2023-01-19T13:50:27.737Z,46.49
2023-01-19T13:52:56.967Z,46.14
2023-01-19T13:55:24.944Z,46.14
2023-01-19T13:57:52.559Z,45.93
2023-01-19T14:00:27.055Z,46.19
2023-01-19T14:03:03.026Z,46.55
2023-01-19T14:05:43.601Z,46.28
2023-01-19T14:08:13.447Z,46.60
2023-01-19T14:10:46.421Z,46.73
2023-01-19T14:13:19.001Z,46.79
2023-01-19T14:15:47.844Z,46.89
2023-01-19T14:18:14.550Z,47.44
2023-01-19T14:20:41.440Z,47.83
2023-01-19T14:23:45.914Z,47.50
2023-01-19T14:26:37.857Z,47.89
2023-01-19T14:29:19.454Z,47.85
2023-01-19T14:32:06.057Z,47.98
2023-01-19T14:35:04.340Z,47.41
2023-01-19T14:37:39.631Z,47.52
2023-01-19T14:40:11.666Z,47.82
2023-01-19T14:42:53.387Z,47.80
2023-01-19T14:45:25.834Z,47.62
2023-01-19T14:48:00.142Z,47.36
2023-01-19T14:50:36.842Z,47.27
2023-01-19T14:53:05.537Z,47.39
2023-01-19T14:55:41.890Z,47.51
2023-01-19T14:58:26.217Z,47.51
2023-01-19T15:00:57.387Z,47.21
2023-01-19T15:03:34.875Z,47.72
2023-01-19T15:06:20.883Z,47.22
2023-01-19T15:09:01.023Z,48.17
2023-01-19T15:11:35.441Z,48.42
2023-01-19T15:14:03.103Z,48.96
2023-01-19T15:16:35.411Z,49.74
2023-01-19T15:19:02.392Z,50.35
2023-01-19T15:21:29.269Z,50.86
2023-01-19T15:23:59.483Z,52.54
2023-01-19T15:26:30.124Z,52.93
2023-01-19T15:28:57.015Z,53.84
2023-01-19T15:31:25.767Z,54.25
2023-01-19T15:33:52.871Z,56.09
2023-01-19T15:36:22.018Z,56.84
2023-01-19T15:38:51.205Z,57.20
2023-01-19T15:41:27.522Z,57.56
2023-01-19T15:43:54.484Z,57.81
2023-01-19T15:46:26.431Z,58.22
2023-01-19T15:48:54.058Z,57.80
2023-01-19T15:51:23.646Z,58.19
2023-01-19T15:53:50.810Z,58.80
2023-01-19T15:56:21.384Z,60.54
2023-01-19T15:58:48.189Z,60.57
2023-01-19T16:01:21.648Z,60.03
2023-01-19T16:03:49.096Z,61.50
2023-01-19T16:06:17.920Z,61.85
2023-01-19T16:08:47.587Z,63.43
2023-01-19T16:11:16.286Z,65.99
2023-01-19T16:13:47.073Z,69.50
2023-01-19T16:16:19.824Z,70.54
2023-01-19T16:18:57.544Z,72.96
2023-01-19T16:21:25.507Z,74.06
2023-01-19T16:23:53.012Z,75.81
2023-01-19T16:26:34.772Z,78.00
2023-01-19T16:29:10.143Z,80.40
2023-01-19T16:31:44.574Z,85.91
2023-01-19T16:34:11.980Z,90.56
2023-01-19T16:36:41.572Z,96.68
2023-01-19T16:39:11.654Z,100.00
2023-01-19T16:41:38.814Z,100.00
2023-01-19T16:44:07.050Z,100.00
2023-01-19T16:46:37.392Z,100.00
2023-01-19T16:49:07.692Z,100.00
2023-01-19T16:51:34.704Z,100.00
2023-01-19T16:54:01.659Z,100.00
2023-01-19T16:56:29.182Z,100.00
2023-01-19T16:58:58.643Z,100.00
2023-01-19T17:01:28.291Z,100.00
2023-01-19T17:03:56.215Z,100.00
2023-01-19T17:06:24.465Z,100.00
2023-01-19T17:08:52.970Z,100.00
2023-01-19T17:11:25.538Z,100.00
2023-01-19T17:14:36.878Z,100.00
2023-01-19T17:19:46.330Z,100.00
2023-01-19T17:22:14.510Z,100.00
2023-01-19T17:24:58.212Z,100.00
2023-01-19T17:27:44.342Z,100.00
2023-01-19T17:30:16.179Z,100.00
2023-01-19T17:33:17.910Z,100.00
2023-01-19T17:35:47.677Z,100.00
2023-01-19T17:38:17.679Z,100.00
2023-01-19T18:03:17.413Z,100.00
2023-01-19T18:05:48.940Z,100.00
2023-01-19T18:08:46.645Z,100.00
2023-01-19T18:11:22.259Z,100.00
2023-01-19T18:13:50.753Z,100.00
2023-01-19T18:16:24.289Z,100.00
2023-01-19T18:18:53.981Z,100.00
2023-01-19T18:21:41.996Z,100.00
2023-01-19T18:24:08.919Z,100.00
2023-01-19T18:27:08.653Z,100.00
2023-01-19T18:35:13.902Z,100.00
2023-01-19T18:37:40.971Z,100.00
2023-01-19T18:40:28.054Z,100.00
2023-01-19T18:42:55.129Z,100.00
2023-01-19T18:45:21.995Z,100.00
2023-01-19T18:47:50.256Z,100.00
2023-01-19T18:50:19.040Z,100.00
2023-01-19T18:52:51.558Z,100.00
2023-01-19T18:55:20.289Z,100.00
2023-01-19T18:57:47.335Z,100.00
2023-01-19T19:00:14.909Z,100.00
2023-01-19T19:02:42.091Z,100.00
2023-01-19T19:05:12.074Z,100.00
2023-01-19T19:07:39.011Z,100.00
2023-01-19T19:10:06.393Z,100.00
2023-01-19T19:12:33.463Z,100.00
2023-01-19T19:15:00.299Z,100.00
2023-01-19T19:17:27.154Z,100.00
2023-01-19T19:19:54.256Z,100.00
2023-01-19T19:22:21.347Z,100.00
2023-01-19T19:24:49.001Z,100.00
2023-01-19T19:27:22.514Z,100.00
2023-01-19T19:29:51.797Z,100.00
2023-01-19T19:32:20.630Z,100.00
2023-01-19T19:34:53.192Z,100.00
2023-01-19T19:37:23.495Z,100.00
2023-01-19T19:39:53.330Z,100.00
2023-01-19T19:42:20.540Z,100.00
2023-01-19T19:44:56.997Z,100.00
2023-01-19T19:47:30.594Z,100.00
2023-01-19T19:50:04.612Z,100.00
2023-01-19T19:55:45.363Z,100.00
2023-01-19T19:58:32.425Z,100.00
2023-01-19T20:01:32.672Z,100.00
2023-01-19T20:12:28.238Z,100.00
2023-01-19T20:15:03.647Z,100.00
2023-01-19T20:17:37.806Z,100.00
2023-01-19T20:20:05.052Z,100.00
2023-01-19T20:22:33.152Z,100.00
2023-01-19T20:25:00.505Z,100.00
2023-01-19T20:27:27.360Z,100.00
2023-01-19T20:29:58.725Z,100.00
2023-01-19T20:32:33.594Z,100.00
2023-01-19T20:40:25.101Z,100.00
2023-01-19T20:43:03.812Z,100.00
2023-01-19T20:45:31.778Z,100.00
2023-01-19T20:47:58.605Z,100.00
2023-01-19T20:50:25.486Z,100.00
2023-01-19T20:52:52.413Z,100.00
2023-01-19T20:55:19.629Z,100.00
2023-01-19T20:57:46.554Z,100.00
2023-01-19T21:00:13.991Z,100.00
2023-01-19T21:02:41.293Z,100.00
2023-01-19T21:05:13.246Z,100.00
2023-01-19T21:07:42.951Z,100.00
2023-01-19T21:10:10.686Z,100.00
2023-01-19T21:12:48.984Z,100.00
2023-01-19T21:15:16.447Z,100.00
2023-01-19T21:17:45.628Z,100.00
2023-01-19T21:20:13.637Z,100.00
2023-01-19T21:22:41.326Z,100.00
2023-01-19T21:47:12.355Z,100.00
2023-01-19T21:49:39.701Z,100.00
2023-01-19T21:52:06.908Z,100.00
2023-01-19T21:54:34.116Z,100.00
2023-01-19T21:57:05.433Z,100.00
2023-01-19T21:59:32.721Z,100.00
2023-01-19T22:01:59.972Z,100.00
2023-01-19T22:04:32.597Z,100.00
2023-01-19T22:06:59.801Z,100.00
2023-01-19T22:09:28.279Z,100.00
2023-01-19T22:11:55.407Z,100.00
2023-01-19T22:14:25.654Z,100.00
2023-01-19T22:16:53.207Z,100.00
2023-01-19T22:19:23.473Z,100.00
2023-01-19T22:21:53.465Z,100.00
2023-01-19T22:24:20.835Z,100.00
2023-01-19T22:27:09.763Z,100.00
2023-01-19T22:29:49.116Z,100.00
2023-01-19T22:32:26.805Z,100.00
2023-01-19T22:35:14.804Z,100.00
2023-01-19T23:29:53.158Z,100.00
2023-01-19T23:32:27.302Z,100.00
2023-01-19T23:35:38.977Z,100.00
2023-01-19T23:38:08.410Z,100.00
2023-01-19T23:40:39.058Z,100.00
